sensor_id;sensor_type;location;lat;lon;timestamp;temperature;humidity
68217;DHT22;55037;52.354;4.992;2022-11-11T00:01:30;13.30;85.90
68217;DHT22;55037;52.354;4.992;2022-11-11T00:04:16;13.30;85.90
68217;DHT22;55037;52.354;4.992;2022-11-11T00:07:01;13.20;86.20
68217;DHT22;55037;52.354;4.992;2022-11-11T00:09:47;13.00;86.70
68217;DHT22;55037;52.354;4.992;2022-11-11T00:12:33;12.90;86.90
68217;DHT22;55037;52.354;4.992;2022-11-11T00:15:19;12.90;87.10
68217;DHT22;55037;52.354;4.992;2022-11-11T00:18:05;12.80;87.50
68217;DHT22;55037;52.354;4.992;2022-11-11T00:21:13;12.70;87.90
68217;DHT22;55037;52.354;4.992;2022-11-11T00:24:28;12.60;88.30
68217;DHT22;55037;52.354;4.992;2022-11-11T00:27:34;12.60;88.50
68217;DHT22;55037;52.354;4.992;2022-11-11T00:30:20;12.50;88.60
68217;DHT22;55037;52.354;4.992;2022-11-11T00:33:06;12.50;88.70
68217;DHT22;55037;52.354;4.992;2022-11-11T00:35:53;12.40;88.90
68217;DHT22;55037;52.354;4.992;2022-11-11T00:38:40;12.40;89.30
68217;DHT22;55037;52.354;4.992;2022-11-11T00:41:32;12.30;89.40
68217;DHT22;55037;52.354;4.992;2022-11-11T00:44:18;12.30;89.70
68217;DHT22;55037;52.354;4.992;2022-11-11T00:47:04;12.30;89.80
68217;DHT22;55037;52.354;4.992;2022-11-11T00:50:14;12.20;89.30
68217;DHT22;55037;52.354;4.992;2022-11-11T00:53:24;12.10;90.10
68217;DHT22;55037;52.354;4.992;2022-11-11T00:56:12;12.10;90.20
68217;DHT22;55037;52.354;4.992;2022-11-11T00:58:58;12.10;90.20
68217;DHT22;55037;52.354;4.992;2022-11-11T01:01:43;12.10;90.20
68217;DHT22;55037;52.354;4.992;2022-11-11T01:04:29;12.10;90.30
68217;DHT22;55037;52.354;4.992;2022-11-11T01:07:15;12.00;90.30
68217;DHT22;55037;52.354;4.992;2022-11-11T01:10:01;12.00;90.40
68217;DHT22;55037;52.354;4.992;2022-11-11T01:12:47;12.00;90.40
68217;DHT22;55037;52.354;4.992;2022-11-11T01:15:33;12.00;90.50
68217;DHT22;55037;52.354;4.992;2022-11-11T01:18:21;12.00;90.70
68217;DHT22;55037;52.354;4.992;2022-11-11T01:21:20;12.00;90.60
68217;DHT22;55037;52.354;4.992;2022-11-11T01:24:06;12.00;90.60
68217;DHT22;55037;52.354;4.992;2022-11-11T01:26:52;12.00;90.60
68217;DHT22;55037;52.354;4.992;2022-11-11T01:29:40;11.90;90.30
68217;DHT22;55037;52.354;4.992;2022-11-11T01:32:26;11.90;90.80
68217;DHT22;55037;52.354;4.992;2022-11-11T01:35:12;11.90;90.80
68217;DHT22;55037;52.354;4.992;2022-11-11T01:37:58;12.00;90.80
68217;DHT22;55037;52.354;4.992;2022-11-11T01:40:46;12.00;90.80
68217;DHT22;55037;52.354;4.992;2022-11-11T01:43:31;12.00;90.70
68217;DHT22;55037;52.354;4.992;2022-11-11T01:46:31;12.00;90.60
68217;DHT22;55037;52.354;4.992;2022-11-11T01:49:45;12.00;90.60
68217;DHT22;55037;52.354;4.992;2022-11-11T01:52:36;11.90;90.70
68217;DHT22;55037;52.354;4.992;2022-11-11T01:55:23;11.80;90.90
68217;DHT22;55037;52.354;4.992;2022-11-11T01:58:12;11.80;90.70
68217;DHT22;55037;52.354;4.992;2022-11-11T02:00:59;11.70;91.00
68217;DHT22;55037;52.354;4.992;2022-11-11T02:03:47;11.80;91.00
68217;DHT22;55037;52.354;4.992;2022-11-11T02:06:56;11.80;91.00
68217;DHT22;55037;52.354;4.992;2022-11-11T02:09:46;11.70;91.10
68217;DHT22;55037;52.354;4.992;2022-11-11T02:12:32;13.40;91.50
68217;DHT22;55037;52.354;4.992;2022-11-11T02:15:37;11.70;91.10
68217;DHT22;55037;52.354;4.992;2022-11-11T02:18:24;11.70;91.20
68217;DHT22;55037;52.354;4.992;2022-11-11T02:21:13;11.70;91.30
68217;DHT22;55037;52.354;4.992;2022-11-11T02:24:14;11.70;91.30
68217;DHT22;55037;52.354;4.992;2022-11-11T02:27:02;11.70;91.20
68217;DHT22;55037;52.354;4.992;2022-11-11T02:29:50;11.70;91.20
68217;DHT22;55037;52.354;4.992;2022-11-11T02:32:37;11.60;91.20
68217;DHT22;55037;52.354;4.992;2022-11-11T02:35:30;11.60;91.30
68217;DHT22;55037;52.354;4.992;2022-11-11T02:38:16;11.60;91.00
68217;DHT22;55037;52.354;4.992;2022-11-11T02:41:02;11.60;91.40
68217;DHT22;55037;52.354;4.992;2022-11-11T02:44:07;11.70;91.40
68217;DHT22;55037;52.354;4.992;2022-11-11T02:46:53;11.70;91.40
68217;DHT22;55037;52.354;4.992;2022-11-11T02:49:39;11.60;91.40
68217;DHT22;55037;52.354;4.992;2022-11-11T02:52:25;11.70;91.30
68217;DHT22;55037;52.354;4.992;2022-11-11T02:55:10;11.70;91.20
68217;DHT22;55037;52.354;4.992;2022-11-11T02:57:56;11.70;91.30
68217;DHT22;55037;52.354;4.992;2022-11-11T03:00:42;11.80;91.30
68217;DHT22;55037;52.354;4.992;2022-11-11T03:03:29;11.90;91.20
68217;DHT22;55037;52.354;4.992;2022-11-11T03:06:15;11.90;91.10
68217;DHT22;55037;52.354;4.992;2022-11-11T03:09:01;11.90;91.00
68217;DHT22;55037;52.354;4.992;2022-11-11T03:11:47;12.00;91.00
68217;DHT22;55037;52.354;4.992;2022-11-11T03:14:33;12.00;91.00
68217;DHT22;55037;52.354;4.992;2022-11-11T03:17:19;12.00;90.90
68217;DHT22;55037;52.354;4.992;2022-11-11T03:20:23;12.10;90.90
68217;DHT22;55037;52.354;4.992;2022-11-11T03:23:35;12.10;90.80
68217;DHT22;55037;52.354;4.992;2022-11-11T03:26:21;12.10;90.80
68217;DHT22;55037;52.354;4.992;2022-11-11T03:29:07;12.10;90.70
68217;DHT22;55037;52.354;4.992;2022-11-11T03:31:52;12.10;90.70
68217;DHT22;55037;52.354;4.992;2022-11-11T03:34:40;12.10;90.60
68217;DHT22;55037;52.354;4.992;2022-11-11T03:37:26;12.10;90.60
68217;DHT22;55037;52.354;4.992;2022-11-11T03:40:31;12.10;90.50
68217;DHT22;55037;52.354;4.992;2022-11-11T03:43:18;12.10;90.50
68217;DHT22;55037;52.354;4.992;2022-11-11T03:46:04;12.10;90.50
68217;DHT22;55037;52.354;4.992;2022-11-11T03:48:50;12.10;90.20
68217;DHT22;55037;52.354;4.992;2022-11-11T03:51:36;12.10;90.60
68217;DHT22;55037;52.354;4.992;2022-11-11T03:54:22;12.00;90.60
68217;DHT22;55037;52.354;4.992;2022-11-11T03:57:07;12.00;90.60
68217;DHT22;55037;52.354;4.992;2022-11-11T04:00:31;12.10;90.20
68217;DHT22;55037;52.354;4.992;2022-11-11T04:03:18;12.00;90.50
68217;DHT22;55037;52.354;4.992;2022-11-11T04:06:23;12.00;90.50
68217;DHT22;55037;52.354;4.992;2022-11-11T04:09:28;11.90;90.60
68217;DHT22;55037;52.354;4.992;2022-11-11T04:12:34;11.90;90.60
68217;DHT22;55037;52.354;4.992;2022-11-11T04:15:40;11.70;90.80
68217;DHT22;55037;52.354;4.992;2022-11-11T04:18:44;11.70;90.90
68217;DHT22;55037;52.354;4.992;2022-11-11T04:21:49;11.60;91.00
68217;DHT22;55037;52.354;4.992;2022-11-11T04:24:35;11.60;91.10
68217;DHT22;55037;52.354;4.992;2022-11-11T04:27:40;11.60;91.20
68217;DHT22;55037;52.354;4.992;2022-11-11T04:30:25;11.60;91.90
68217;DHT22;55037;52.354;4.992;2022-11-11T04:33:13;11.60;91.50
68217;DHT22;55037;52.354;4.992;2022-11-11T04:35:59;11.70;91.40
68217;DHT22;55037;52.354;4.992;2022-11-11T04:38:45;11.70;91.20
68217;DHT22;55037;52.354;4.992;2022-11-11T04:41:49;11.80;91.20
68217;DHT22;55037;52.354;4.992;2022-11-11T04:44:53;11.80;91.10
68217;DHT22;55037;52.354;4.992;2022-11-11T04:48:06;11.90;91.00
68217;DHT22;55037;52.354;4.992;2022-11-11T04:50:52;11.80;90.90
68217;DHT22;55037;52.354;4.992;2022-11-11T04:53:39;11.90;90.90
68217;DHT22;55037;52.354;4.992;2022-11-11T04:56:24;11.80;90.80
68217;DHT22;55037;52.354;4.992;2022-11-11T04:59:28;11.90;90.80
68217;DHT22;55037;52.354;4.992;2022-11-11T05:02:14;11.90;90.80
68217;DHT22;55037;52.354;4.992;2022-11-11T05:05:19;11.90;90.80
68217;DHT22;55037;52.354;4.992;2022-11-11T05:08:04;11.90;90.90
68217;DHT22;55037;52.354;4.992;2022-11-11T05:11:09;11.90;90.90
68217;DHT22;55037;52.354;4.992;2022-11-11T05:13:56;11.90;90.70
68217;DHT22;55037;52.354;4.992;2022-11-11T05:17:01;11.90;90.70
68217;DHT22;55037;52.354;4.992;2022-11-11T05:20:07;12.00;90.70
68217;DHT22;55037;52.354;4.992;2022-11-11T05:23:13;12.00;91.10
68217;DHT22;55037;52.354;4.992;2022-11-11T05:25:58;11.90;90.60
68217;DHT22;55037;52.354;4.992;2022-11-11T05:28:44;11.90;90.70
68217;DHT22;55037;52.354;4.992;2022-11-11T05:31:31;11.90;90.70
68217;DHT22;55037;52.354;4.992;2022-11-11T05:34:17;12.00;90.70
68217;DHT22;55037;52.354;4.992;2022-11-11T05:37:03;12.00;90.60
68217;DHT22;55037;52.354;4.992;2022-11-11T05:39:49;12.00;90.60
68217;DHT22;55037;52.354;4.992;2022-11-11T05:42:39;12.10;90.60
68217;DHT22;55037;52.354;4.992;2022-11-11T05:45:33;12.10;90.40
68217;DHT22;55037;52.354;4.992;2022-11-11T05:48:19;12.00;90.60
68217;DHT22;55037;52.354;4.992;2022-11-11T05:51:05;12.00;90.70
68217;DHT22;55037;52.354;4.992;2022-11-11T05:53:51;12.10;90.50
68217;DHT22;55037;52.354;4.992;2022-11-11T05:56:37;12.10;90.40
68217;DHT22;55037;52.354;4.992;2022-11-11T05:59:23;12.10;90.40
68217;DHT22;55037;52.354;4.992;2022-11-11T06:02:09;12.10;90.40
68217;DHT22;55037;52.354;4.992;2022-11-11T06:04:55;12.10;90.30
68217;DHT22;55037;52.354;4.992;2022-11-11T06:07:41;12.00;90.30
68217;DHT22;55037;52.354;4.992;2022-11-11T06:10:27;12.00;90.30
68217;DHT22;55037;52.354;4.992;2022-11-11T06:13:15;12.00;90.30
68217;DHT22;55037;52.354;4.992;2022-11-11T06:16:02;12.00;90.20
68217;DHT22;55037;52.354;4.992;2022-11-11T06:18:49;12.00;90.30
68217;DHT22;55037;52.354;4.992;2022-11-11T06:21:35;12.00;90.20
68217;DHT22;55037;52.354;4.992;2022-11-11T06:24:40;12.00;90.30
68217;DHT22;55037;52.354;4.992;2022-11-11T06:27:26;11.90;90.20
68217;DHT22;55037;52.354;4.992;2022-11-11T06:30:12;11.90;90.30
68217;DHT22;55037;52.354;4.992;2022-11-11T06:33:18;11.90;90.40
68217;DHT22;55037;52.354;4.992;2022-11-11T06:36:05;11.90;90.40
68217;DHT22;55037;52.354;4.992;2022-11-11T06:38:51;11.90;90.30
68217;DHT22;55037;52.354;4.992;2022-11-11T06:41:37;11.90;90.30
68217;DHT22;55037;52.354;4.992;2022-11-11T06:44:23;11.90;90.40
68217;DHT22;55037;52.354;4.992;2022-11-11T06:47:09;11.90;90.40
68217;DHT22;55037;52.354;4.992;2022-11-11T06:49:55;11.90;90.40
68217;DHT22;55037;52.354;4.992;2022-11-11T06:52:41;11.90;90.40
68217;DHT22;55037;52.354;4.992;2022-11-11T06:55:26;11.90;90.30
68217;DHT22;55037;52.354;4.992;2022-11-11T06:58:15;11.80;90.40
68217;DHT22;55037;52.354;4.992;2022-11-11T07:01:05;11.90;90.40
68217;DHT22;55037;52.354;4.992;2022-11-11T07:03:51;11.90;90.40
68217;DHT22;55037;52.354;4.992;2022-11-11T07:06:37;11.90;90.30
68217;DHT22;55037;52.354;4.992;2022-11-11T07:09:23;11.80;90.40
68217;DHT22;55037;52.354;4.992;2022-11-11T07:12:10;11.90;90.30
68217;DHT22;55037;52.354;4.992;2022-11-11T07:14:56;11.80;90.40
68217;DHT22;55037;52.354;4.992;2022-11-11T07:17:42;11.80;90.40
68217;DHT22;55037;52.354;4.992;2022-11-11T07:20:28;11.90;90.30
68217;DHT22;55037;52.354;4.992;2022-11-11T07:23:14;11.90;90.40
68217;DHT22;55037;52.354;4.992;2022-11-11T07:26:02;11.80;90.30
68217;DHT22;55037;52.354;4.992;2022-11-11T07:28:48;11.80;90.30
68217;DHT22;55037;52.354;4.992;2022-11-11T07:31:35;11.80;90.30
68217;DHT22;55037;52.354;4.992;2022-11-11T07:34:21;11.80;90.30
68217;DHT22;55037;52.354;4.992;2022-11-11T07:37:07;11.80;90.20
68217;DHT22;55037;52.354;4.992;2022-11-11T07:39:53;11.80;90.30
68217;DHT22;55037;52.354;4.992;2022-11-11T07:42:39;11.70;90.30
68217;DHT22;55037;52.354;4.992;2022-11-11T07:45:25;11.80;90.40
68217;DHT22;55037;52.354;4.992;2022-11-11T07:48:11;11.80;90.30
68217;DHT22;55037;52.354;4.992;2022-11-11T07:50:57;11.80;90.20
68217;DHT22;55037;52.354;4.992;2022-11-11T07:53:42;11.80;90.20
68217;DHT22;55037;52.354;4.992;2022-11-11T07:56:28;11.80;90.30
68217;DHT22;55037;52.354;4.992;2022-11-11T07:59:14;11.90;90.20
68217;DHT22;55037;52.354;4.992;2022-11-11T08:02:00;11.80;90.00
68217;DHT22;55037;52.354;4.992;2022-11-11T08:04:46;11.90;90.00
68217;DHT22;55037;52.354;4.992;2022-11-11T08:07:39;11.80;90.00
68217;DHT22;55037;52.354;4.992;2022-11-11T08:10:26;11.90;90.00
68217;DHT22;55037;52.354;4.992;2022-11-11T08:13:12;11.90;89.90
68217;DHT22;55037;52.354;4.992;2022-11-11T08:16:17;11.90;89.70
68217;DHT22;55037;52.354;4.992;2022-11-11T08:19:03;11.90;89.00
68217;DHT22;55037;52.354;4.992;2022-11-11T08:21:50;12.00;89.90
68217;DHT22;55037;52.354;4.992;2022-11-11T08:24:36;12.00;89.40
68217;DHT22;55037;52.354;4.992;2022-11-11T08:27:41;12.00;89.30
68217;DHT22;55037;52.354;4.992;2022-11-11T08:30:27;12.00;89.30
68217;DHT22;55037;52.354;4.992;2022-11-11T08:33:13;12.00;89.00
68217;DHT22;55037;52.354;4.992;2022-11-11T08:36:19;12.00;88.70
68217;DHT22;55037;52.354;4.992;2022-11-11T08:39:06;12.00;88.90
68217;DHT22;55037;52.354;4.992;2022-11-11T08:41:52;12.00;88.90
68217;DHT22;55037;52.354;4.992;2022-11-11T08:44:38;12.00;88.50
68217;DHT22;55037;52.354;4.992;2022-11-11T08:47:24;12.00;88.60
68217;DHT22;55037;52.354;4.992;2022-11-11T08:50:10;12.00;87.80
68217;DHT22;55037;52.354;4.992;2022-11-11T08:52:56;12.00;89.10
68217;DHT22;55037;52.354;4.992;2022-11-11T08:55:42;12.00;88.70
68217;DHT22;55037;52.354;4.992;2022-11-11T08:58:28;12.00;88.80
68217;DHT22;55037;52.354;4.992;2022-11-11T09:01:14;12.00;88.90
68217;DHT22;55037;52.354;4.992;2022-11-11T09:04:00;12.10;88.90
68217;DHT22;55037;52.354;4.992;2022-11-11T09:07:09;12.10;88.80
68217;DHT22;55037;52.354;4.992;2022-11-11T09:09:55;12.10;88.60
68217;DHT22;55037;52.354;4.992;2022-11-11T09:12:41;12.20;88.50
68217;DHT22;55037;52.354;4.992;2022-11-11T09:15:28;12.20;88.30
68217;DHT22;55037;52.354;4.992;2022-11-11T09:18:14;12.20;88.30
68217;DHT22;55037;52.354;4.992;2022-11-11T09:21:00;12.20;88.30
68217;DHT22;55037;52.354;4.992;2022-11-11T09:23:46;12.20;88.40
68217;DHT22;55037;52.354;4.992;2022-11-11T09:26:31;12.10;88.30
68217;DHT22;55037;52.354;4.992;2022-11-11T09:29:18;12.10;87.80
68217;DHT22;55037;52.354;4.992;2022-11-11T09:32:04;12.10;88.70
68217;DHT22;55037;52.354;4.992;2022-11-11T09:34:50;12.10;88.50
68217;DHT22;55037;52.354;4.992;2022-11-11T09:37:35;12.20;88.90
68217;DHT22;55037;52.354;4.992;2022-11-11T09:40:24;12.20;88.70
68217;DHT22;55037;52.354;4.992;2022-11-11T09:46:15;12.20;88.50
68217;DHT22;55037;52.354;4.992;2022-11-11T09:52:15;12.50;89.10
68217;DHT22;55037;52.354;4.992;2022-11-11T09:55:18;12.50;87.90
68217;DHT22;55037;52.354;4.992;2022-11-11T09:58:18;12.40;87.40
68217;DHT22;55037;52.354;4.992;2022-11-11T10:01:27;12.40;87.90
68217;DHT22;55037;52.354;4.992;2022-11-11T10:04:55;12.50;87.70
68217;DHT22;55037;52.354;4.992;2022-11-11T10:08:00;12.50;87.50
68217;DHT22;55037;52.354;4.992;2022-11-11T10:10:49;12.40;87.60
68217;DHT22;55037;52.354;4.992;2022-11-11T10:13:36;12.50;88.00
68217;DHT22;55037;52.354;4.992;2022-11-11T10:17:01;12.50;87.50
68217;DHT22;55037;52.354;4.992;2022-11-11T10:22:44;12.50;88.00
68217;DHT22;55037;52.354;4.992;2022-11-11T10:25:31;12.60;87.60
68217;DHT22;55037;52.354;4.992;2022-11-11T10:28:19;12.60;87.20
68217;DHT22;55037;52.354;4.992;2022-11-11T10:31:12;12.50;87.20
68217;DHT22;55037;52.354;4.992;2022-11-11T10:34:08;12.50;87.60
68217;DHT22;55037;52.354;4.992;2022-11-11T10:36:56;12.60;87.00
68217;DHT22;55037;52.354;4.992;2022-11-11T10:40:08;12.60;87.10
68217;DHT22;55037;52.354;4.992;2022-11-11T10:42:56;12.60;87.40
68217;DHT22;55037;52.354;4.992;2022-11-11T10:48:54;13.00;86.50
68217;DHT22;55037;52.354;4.992;2022-11-11T10:51:52;13.20;86.60
68217;DHT22;55037;52.354;4.992;2022-11-11T10:54:49;13.60;84.70
68217;DHT22;55037;52.354;4.992;2022-11-11T10:57:42;13.60;83.10
68217;DHT22;55037;52.354;4.992;2022-11-11T11:00:32;13.50;83.30
68217;DHT22;55037;52.354;4.992;2022-11-11T11:03:42;13.50;84.10
68217;DHT22;55037;52.354;4.992;2022-11-11T11:06:35;13.50;83.40
68217;DHT22;55037;52.354;4.992;2022-11-11T11:09:34;13.40;82.60
68217;DHT22;55037;52.354;4.992;2022-11-11T11:12:42;13.30;83.30
68217;DHT22;55037;52.354;4.992;2022-11-11T11:15:31;13.20;84.20
68217;DHT22;55037;52.354;4.992;2022-11-11T11:18:18;13.20;83.80
68217;DHT22;55037;52.354;4.992;2022-11-11T11:21:06;13.20;83.90
68217;DHT22;55037;52.354;4.992;2022-11-11T11:23:51;13.20;84.00
68217;DHT22;55037;52.354;4.992;2022-11-11T11:26:45;13.10;83.80
68217;DHT22;55037;52.354;4.992;2022-11-11T11:29:38;13.10;84.40
68217;DHT22;55037;52.354;4.992;2022-11-11T11:35:42;13.40;83.40
68217;DHT22;55037;52.354;4.992;2022-11-11T11:38:40;13.30;83.30
68217;DHT22;55037;52.354;4.992;2022-11-11T11:41:41;13.30;83.90
68217;DHT22;55037;52.354;4.992;2022-11-11T11:44:32;13.30;83.40
68217;DHT22;55037;52.354;4.992;2022-11-11T11:51:01;13.20;84.00
68217;DHT22;55037;52.354;4.992;2022-11-11T11:57:02;13.50;83.80
68217;DHT22;55037;52.354;4.992;2022-11-11T12:00:03;13.50;82.50
68217;DHT22;55037;52.354;4.992;2022-11-11T12:03:00;13.40;83.10
68217;DHT22;55037;52.354;4.992;2022-11-11T12:12:31;13.30;83.60
68217;DHT22;55037;52.354;4.992;2022-11-11T12:15:33;13.40;83.30
68217;DHT22;55037;52.354;4.992;2022-11-11T12:21:14;13.40;82.40
68217;DHT22;55037;52.354;4.992;2022-11-11T12:24:26;13.30;82.90
68217;DHT22;55037;52.354;4.992;2022-11-11T12:27:22;13.20;83.30
68217;DHT22;55037;52.354;4.992;2022-11-11T12:30:22;13.20;83.50
68217;DHT22;55037;52.354;4.992;2022-11-11T12:33:46;13.30;83.90
68217;DHT22;55037;52.354;4.992;2022-11-11T12:37:06;13.40;83.50
68217;DHT22;55037;52.354;4.992;2022-11-11T12:40:14;13.50;83.40
68217;DHT22;55037;52.354;4.992;2022-11-11T12:46:30;13.50;83.10
68217;DHT22;55037;52.354;4.992;2022-11-11T12:49:35;13.70;83.10
68217;DHT22;55037;52.354;4.992;2022-11-11T12:52:32;13.70;82.30
68217;DHT22;55037;52.354;4.992;2022-11-11T12:58:43;13.70;82.30
68217;DHT22;55037;52.354;4.992;2022-11-11T13:01:54;13.70;82.20
68217;DHT22;55037;52.354;4.992;2022-11-11T13:06:04;13.90;83.00
68217;DHT22;55037;52.354;4.992;2022-11-11T13:08:55;14.90;82.90
68217;DHT22;55037;52.354;4.992;2022-11-11T13:14:50;15.70;75.90
68217;DHT22;55037;52.354;4.992;2022-11-11T13:17:39;15.90;75.80
68217;DHT22;55037;52.354;4.992;2022-11-11T13:20:56;15.90;74.50
68217;DHT22;55037;52.354;4.992;2022-11-11T13:23:42;16.00;74.90
68217;DHT22;55037;52.354;4.992;2022-11-11T13:26:38;16.70;74.80
68217;DHT22;55037;52.354;4.992;2022-11-11T13:32:33;18.70;67.70
68217;DHT22;55037;52.354;4.992;2022-11-11T13:35:33;19.40;64.80
68217;DHT22;55037;52.354;4.992;2022-11-11T13:38:34;19.80;61.60
68217;DHT22;55037;52.354;4.992;2022-11-11T13:41:28;19.70;60.40
68217;DHT22;55037;52.354;4.992;2022-11-11T13:44:31;19.70;59.90
68217;DHT22;55037;52.354;4.992;2022-11-11T13:47:24;19.50;60.30
68217;DHT22;55037;52.354;4.992;2022-11-11T13:50:20;19.40;60.50
68217;DHT22;55037;52.354;4.992;2022-11-11T13:53:29;19.80;60.60
68217;DHT22;55037;52.354;4.992;2022-11-11T13:56:26;20.50;57.40
68217;DHT22;55037;52.354;4.992;2022-11-11T13:59:34;20.60;56.20
68217;DHT22;55037;52.354;4.992;2022-11-11T14:07:56;17.60;63.80
68217;DHT22;55037;52.354;4.992;2022-11-11T14:10:49;17.50;65.30
68217;DHT22;55037;52.354;4.992;2022-11-11T14:13:36;17.30;66.00
68217;DHT22;55037;52.354;4.992;2022-11-11T14:22:29;16.60;68.20
68217;DHT22;55037;52.354;4.992;2022-11-11T14:25:20;16.20;69.90
68217;DHT22;55037;52.354;4.992;2022-11-11T14:28:33;16.40;70.80
68217;DHT22;55037;52.354;4.992;2022-11-11T14:34:21;16.80;69.80
68217;DHT22;55037;52.354;4.992;2022-11-11T14:40:28;16.40;70.20
68217;DHT22;55037;52.354;4.992;2022-11-11T14:43:35;16.20;70.80
68217;DHT22;55037;52.354;4.992;2022-11-11T14:46:21;15.70;72.00
68217;DHT22;55037;52.354;4.992;2022-11-11T14:49:07;15.50;73.60
68217;DHT22;55037;52.354;4.992;2022-11-11T14:51:56;15.30;74.50
68217;DHT22;55037;52.354;4.992;2022-11-11T15:01:03;14.90;75.90
68217;DHT22;55037;52.354;4.992;2022-11-11T15:04:01;14.80;76.70
68217;DHT22;55037;52.354;4.992;2022-11-11T15:06:51;14.70;77.20
68217;DHT22;55037;52.354;4.992;2022-11-11T15:10:10;14.60;77.90
68217;DHT22;55037;52.354;4.992;2022-11-11T15:13:20;14.50;78.40
68217;DHT22;55037;52.354;4.992;2022-11-11T15:37:02;13.70;82.00
68217;DHT22;55037;52.354;4.992;2022-11-11T15:39:54;13.60;82.60
68217;DHT22;55037;52.354;4.992;2022-11-11T15:42:43;13.60;83.10
68217;DHT22;55037;52.354;4.992;2022-11-11T15:45:34;13.50;83.60
68217;DHT22;55037;52.354;4.992;2022-11-11T15:51:21;13.30;84.10
68217;DHT22;55037;52.354;4.992;2022-11-11T15:54:21;13.20;84.50
68217;DHT22;55037;52.354;4.992;2022-11-11T15:57:28;13.10;84.90
68217;DHT22;55037;52.354;4.992;2022-11-11T16:00:34;13.00;85.40
68217;DHT22;55037;52.354;4.992;2022-11-11T16:03:40;12.90;85.80
68217;DHT22;55037;52.354;4.992;2022-11-11T16:06:26;12.90;86.00
68217;DHT22;55037;52.354;4.992;2022-11-11T16:09:14;12.80;85.50
68217;DHT22;55037;52.354;4.992;2022-11-11T16:12:01;12.80;86.30
68217;DHT22;55037;52.354;4.992;2022-11-11T16:14:48;12.80;86.40
68217;DHT22;55037;52.354;4.992;2022-11-11T16:17:41;12.70;86.70
68217;DHT22;55037;52.354;4.992;2022-11-11T16:20:35;12.70;86.90
68217;DHT22;55037;52.354;4.992;2022-11-11T16:23:23;12.60;87.10
68217;DHT22;55037;52.354;4.992;2022-11-11T16:26:10;12.60;87.30
68217;DHT22;55037;52.354;4.992;2022-11-11T16:28:57;12.50;87.50
68217;DHT22;55037;52.354;4.992;2022-11-11T16:31:44;12.50;87.50
68217;DHT22;55037;52.354;4.992;2022-11-11T16:34:36;12.50;87.40
68217;DHT22;55037;52.354;4.992;2022-11-11T16:37:25;12.50;87.40
68217;DHT22;55037;52.354;4.992;2022-11-11T16:43:22;12.40;87.40
68217;DHT22;55037;52.354;4.992;2022-11-11T16:46:14;12.40;87.40
68217;DHT22;55037;52.354;4.992;2022-11-11T16:52:20;12.30;87.70
68217;DHT22;55037;52.354;4.992;2022-11-11T16:55:08;12.20;87.80
68217;DHT22;55037;52.354;4.992;2022-11-11T16:57:57;12.20;88.00
68217;DHT22;55037;52.354;4.992;2022-11-11T17:00:44;12.20;88.10
68217;DHT22;55037;52.354;4.992;2022-11-11T17:03:32;12.20;88.20
68217;DHT22;55037;52.354;4.992;2022-11-11T17:06:18;12.10;88.40
68217;DHT22;55037;52.354;4.992;2022-11-11T17:12:12;12.10;88.80
68217;DHT22;55037;52.354;4.992;2022-11-11T17:14:58;12.00;88.90
68217;DHT22;55037;52.354;4.992;2022-11-11T17:17:44;12.00;89.00
68217;DHT22;55037;52.354;4.992;2022-11-11T17:20:31;12.00;88.90
68217;DHT22;55037;52.354;4.992;2022-11-11T17:23:17;12.00;88.80
68217;DHT22;55037;52.354;4.992;2022-11-11T17:26:02;12.00;88.80
68217;DHT22;55037;52.354;4.992;2022-11-11T17:28:48;11.90;88.70
68217;DHT22;55037;52.354;4.992;2022-11-11T17:31:35;11.90;88.70
68217;DHT22;55037;52.354;4.992;2022-11-11T17:34:23;11.90;88.50
68217;DHT22;55037;52.354;4.992;2022-11-11T17:37:09;11.90;88.30
68217;DHT22;55037;52.354;4.992;2022-11-11T17:39:55;11.90;88.10
68217;DHT22;55037;52.354;4.992;2022-11-11T17:42:41;11.80;88.00
68217;DHT22;55037;52.354;4.992;2022-11-11T17:45:27;11.80;88.00
68217;DHT22;55037;52.354;4.992;2022-11-11T17:48:13;11.80;88.00
68217;DHT22;55037;52.354;4.992;2022-11-11T17:51:03;11.80;87.80
68217;DHT22;55037;52.354;4.992;2022-11-11T17:53:50;11.70;87.80
68217;DHT22;55037;52.354;4.992;2022-11-11T17:56:36;11.70;87.60
68217;DHT22;55037;52.354;4.992;2022-11-11T17:59:23;11.70;87.20
68217;DHT22;55037;52.354;4.992;2022-11-11T18:02:11;11.70;87.20
68217;DHT22;55037;52.354;4.992;2022-11-11T18:04:57;11.70;87.20
68217;DHT22;55037;52.354;4.992;2022-11-11T18:07:43;11.70;87.00
68217;DHT22;55037;52.354;4.992;2022-11-11T18:10:30;11.70;86.90
68217;DHT22;55037;52.354;4.992;2022-11-11T18:13:15;11.70;87.90
68217;DHT22;55037;52.354;4.992;2022-11-11T18:16:01;11.70;86.80
68217;DHT22;55037;52.354;4.992;2022-11-11T18:18:52;11.60;85.90
68217;DHT22;55037;52.354;4.992;2022-11-11T18:21:39;11.60;86.70
68217;DHT22;55037;52.354;4.992;2022-11-11T18:24:27;11.60;86.60
68217;DHT22;55037;52.354;4.992;2022-11-11T18:27:13;11.60;86.60
68217;DHT22;55037;52.354;4.992;2022-11-11T18:29:59;11.60;86.50
68217;DHT22;55037;52.354;4.992;2022-11-11T18:32:45;11.60;86.50
68217;DHT22;55037;52.354;4.992;2022-11-11T18:35:32;11.60;86.40
68217;DHT22;55037;52.354;4.992;2022-11-11T18:38:18;11.60;86.20
68217;DHT22;55037;52.354;4.992;2022-11-11T18:41:14;11.60;86.20
68217;DHT22;55037;52.354;4.992;2022-11-11T18:44:00;11.60;86.10
68217;DHT22;55037;52.354;4.992;2022-11-11T18:46:46;11.60;86.20
68217;DHT22;55037;52.354;4.992;2022-11-11T18:49:31;11.50;86.20
68217;DHT22;55037;52.354;4.992;2022-11-11T18:52:17;11.50;86.30
68217;DHT22;55037;52.354;4.992;2022-11-11T18:55:04;11.50;86.40
68217;DHT22;55037;52.354;4.992;2022-11-11T18:57:50;11.50;86.50
68217;DHT22;55037;52.354;4.992;2022-11-11T19:00:36;11.50;86.60
68217;DHT22;55037;52.354;4.992;2022-11-11T19:03:21;11.40;86.60
68217;DHT22;55037;52.354;4.992;2022-11-11T19:06:09;11.40;86.90
68217;DHT22;55037;52.354;4.992;2022-11-11T19:09:00;11.40;86.80
68217;DHT22;55037;52.354;4.992;2022-11-11T19:11:46;11.40;86.80
68217;DHT22;55037;52.354;4.992;2022-11-11T19:14:32;11.40;86.80
68217;DHT22;55037;52.354;4.992;2022-11-11T19:17:18;11.30;86.90
68217;DHT22;55037;52.354;4.992;2022-11-11T19:20:04;11.30;87.00
68217;DHT22;55037;52.354;4.992;2022-11-11T19:22:50;11.30;87.20
68217;DHT22;55037;52.354;4.992;2022-11-11T19:25:36;11.30;87.10
68217;DHT22;55037;52.354;4.992;2022-11-11T19:28:22;11.30;87.20
68217;DHT22;55037;52.354;4.992;2022-11-11T19:31:11;11.30;87.10
68217;DHT22;55037;52.354;4.992;2022-11-11T19:33:57;11.30;87.00
68217;DHT22;55037;52.354;4.992;2022-11-11T19:36:43;11.30;86.90
68217;DHT22;55037;52.354;4.992;2022-11-11T19:39:29;11.30;87.00
68217;DHT22;55037;52.354;4.992;2022-11-11T19:42:15;11.30;87.00
68217;DHT22;55037;52.354;4.992;2022-11-11T19:45:02;11.20;87.10